sensor_id;sensor_type;location;lat;lon;timestamp;pressure;altitude;pressure_sealevel;temperature;humidity
54592;BME280;40488;48.558;18.150;2023-05-29T00:00:06;99584.88;;;15.35;72.49
54592;BME280;40488;48.558;18.150;2023-05-29T00:02:40;99591.94;;;15.24;72.98
54592;BME280;40488;48.558;18.150;2023-05-29T00:05:11;99587.63;;;15.26;73.00
54592;BME280;40488;48.558;18.150;2023-05-29T00:07:41;99593.44;;;15.34;72.94
54592;BME280;40488;48.558;18.150;2023-05-29T00:10:11;99585.72;;;15.35;72.85
54592;BME280;40488;48.558;18.150;2023-05-29T00:12:40;99583.97;;;15.36;72.50
54592;BME280;40488;48.558;18.150;2023-05-29T00:15:09;99587.44;;;15.35;72.53
54592;BME280;40488;48.558;18.150;2023-05-29T00:17:41;99585.72;;;15.34;71.87
54592;BME280;40488;48.558;18.150;2023-05-29T00:20:11;99579.72;;;15.35;72.37
54592;BME280;40488;48.558;18.150;2023-05-29T00:22:40;99577.16;;;15.35;72.19
54592;BME280;40488;48.558;18.150;2023-05-29T00:25:09;99571.19;;;15.33;72.54
54592;BME280;40488;48.558;18.150;2023-05-29T00:27:38;99579.91;;;15.26;72.37
54592;BME280;40488;48.558;18.150;2023-05-29T00:30:08;99583.47;;;15.19;72.92
54592;BME280;40488;48.558;18.150;2023-05-29T00:32:37;99581.09;;;15.11;73.00
54592;BME280;40488;48.558;18.150;2023-05-29T00:35:09;99574.19;;;15.12;73.10
54592;BME280;40488;48.558;18.150;2023-05-29T00:37:38;99583.56;;;15.16;72.90
54592;BME280;40488;48.558;18.150;2023-05-29T00:40:08;99586.94;;;15.18;72.79
54592;BME280;40488;48.558;18.150;2023-05-29T00:42:37;99588.72;;;15.14;72.63
54592;BME280;40488;48.558;18.150;2023-05-29T00:45:07;99584.66;;;15.03;73.05
54592;BME280;40488;48.558;18.150;2023-05-29T00:47:36;99597.53;;;15.03;72.82
54592;BME280;40488;48.558;18.150;2023-05-29T00:50:06;99588.91;;;15.07;72.98
54592;BME280;40488;48.558;18.150;2023-05-29T00:52:40;99577.69;;;15.09;72.84
54592;BME280;40488;48.558;18.150;2023-05-29T00:55:09;99587.88;;;15.14;73.10
54592;BME280;40488;48.558;18.150;2023-05-29T00:57:38;99574.28;;;15.07;73.12
54592;BME280;40488;48.558;18.150;2023-05-29T01:03:32;99583.09;;;14.96;73.08
54592;BME280;40488;48.558;18.150;2023-05-29T01:06:03;99587.63;;;14.85;73.56
54592;BME280;40488;48.558;18.150;2023-05-29T01:08:34;99592.84;;;14.78;73.80
54592;BME280;40488;48.558;18.150;2023-05-29T01:11:08;99584.34;;;14.76;74.37
54592;BME280;40488;48.558;18.150;2023-05-29T01:13:44;99594.63;;;14.76;74.45
54592;BME280;40488;48.558;18.150;2023-05-29T01:16:20;99591.00;;;14.87;74.34
54592;BME280;40488;48.558;18.150;2023-05-29T01:18:56;99584.06;;;14.92;74.12
54592;BME280;40488;48.558;18.150;2023-05-29T01:21:42;99589.13;;;14.95;74.06
54592;BME280;40488;48.558;18.150;2023-05-29T01:24:26;99586.72;;;14.87;73.86
54592;BME280;40488;48.558;18.150;2023-05-29T01:26:58;99590.34;;;14.77;74.31
54592;BME280;40488;48.558;18.150;2023-05-29T01:29:32;99589.66;;;14.67;74.74
54592;BME280;40488;48.558;18.150;2023-05-29T01:32:03;99596.47;;;14.68;74.64
54592;BME280;40488;48.558;18.150;2023-05-29T01:34:33;99591.41;;;14.65;74.94
54592;BME280;40488;48.558;18.150;2023-05-29T01:37:02;99588.81;;;14.67;74.52
54592;BME280;40488;48.558;18.150;2023-05-29T01:39:31;99579.47;;;14.61;74.69
54592;BME280;40488;48.558;18.150;2023-05-29T01:42:03;99561.69;;;14.52;74.84
54592;BME280;40488;48.558;18.150;2023-05-29T01:44:35;99572.59;;;14.65;74.75
54592;BME280;40488;48.558;18.150;2023-05-29T01:47:05;99576.84;;;14.66;74.18
54592;BME280;40488;48.558;18.150;2023-05-29T01:49:36;99575.16;;;14.65;74.36
54592;BME280;40488;48.558;18.150;2023-05-29T01:52:08;99571.78;;;14.63;74.19
54592;BME280;40488;48.558;18.150;2023-05-29T01:54:38;99576.97;;;14.60;74.34
54592;BME280;40488;48.558;18.150;2023-05-29T01:57:09;99570.97;;;14.59;74.03
54592;BME280;40488;48.558;18.150;2023-05-29T01:59:39;99561.69;;;14.52;74.41
54592;BME280;40488;48.558;18.150;2023-05-29T02:02:09;99567.63;;;14.54;74.09
54592;BME280;40488;48.558;18.150;2023-05-29T02:04:39;99566.00;;;14.50;73.46
54592;BME280;40488;48.558;18.150;2023-05-29T02:07:08;99526.91;;;14.36;73.29
54592;BME280;40488;48.558;18.150;2023-05-29T02:09:36;99565.97;;;14.53;73.78
54592;BME280;40488;48.558;18.150;2023-05-29T02:12:06;99573.75;;;14.49;74.00
54592;BME280;40488;48.558;18.150;2023-05-29T02:14:36;99567.72;;;14.51;73.44
54592;BME280;40488;48.558;18.150;2023-05-29T02:17:08;99560.00;;;14.51;73.51
54592;BME280;40488;48.558;18.150;2023-05-29T02:19:37;99565.28;;;14.42;73.85
54592;BME280;40488;48.558;18.150;2023-05-29T02:22:07;99550.94;;;14.31;73.88
54592;BME280;40488;48.558;18.150;2023-05-29T02:24:36;99559.50;;;14.31;74.00
54592;BME280;40488;48.558;18.150;2023-05-29T02:27:06;99556.91;;;14.34;74.30
54592;BME280;40488;48.558;18.150;2023-05-29T02:29:38;99546.59;;;14.36;74.37
54592;BME280;40488;48.558;18.150;2023-05-29T02:32:07;99555.84;;;14.44;74.29
54592;BME280;40488;48.558;18.150;2023-05-29T02:34:36;99549.84;;;14.45;73.98
54592;BME280;40488;48.558;18.150;2023-05-29T02:37:04;99548.16;;;14.43;74.35
54592;BME280;40488;48.558;18.150;2023-05-29T02:39:33;99555.91;;;14.41;74.19
54592;BME280;40488;48.558;18.150;2023-05-29T02:42:02;99549.97;;;14.38;74.23
54592;BME280;40488;48.558;18.150;2023-05-29T02:44:31;99553.44;;;14.35;73.97
54592;BME280;40488;48.558;18.150;2023-05-29T02:47:01;99546.69;;;14.30;74.00
54592;BME280;40488;48.558;18.150;2023-05-29T02:49:30;99556.09;;;14.32;74.09
54592;BME280;40488;48.558;18.150;2023-05-29T02:51:59;99556.91;;;14.34;73.92
54592;BME280;40488;48.558;18.150;2023-05-29T02:54:28;99556.00;;;14.35;74.40
54592;BME280;40488;48.558;18.150;2023-05-29T02:56:57;99560.22;;;14.39;73.86
54592;BME280;40488;48.558;18.150;2023-05-29T02:59:26;99561.91;;;14.40;73.74
54592;BME280;40488;48.558;18.150;2023-05-29T03:01:55;99561.91;;;14.42;73.82
54592;BME280;40488;48.558;18.150;2023-05-29T03:04:26;99561.09;;;14.38;73.19
54592;BME280;40488;48.558;18.150;2023-05-29T03:06:55;99554.34;;;14.33;72.87
54592;BME280;40488;48.558;18.150;2023-05-29T03:09:24;99558.66;;;14.29;73.09
54592;BME280;40488;48.558;18.150;2023-05-29T03:11:53;99563.84;;;14.26;73.04
54592;BME280;40488;48.558;18.150;2023-05-29T03:14:22;99560.47;;;14.24;73.07
54592;BME280;40488;48.558;18.150;2023-05-29T03:16:51;99563.03;;;14.24;72.71
54592;BME280;40488;48.558;18.150;2023-05-29T03:19:20;99556.19;;;14.23;72.93
54592;BME280;40488;48.558;18.150;2023-05-29T03:21:51;99559.59;;;14.25;72.91
54592;BME280;40488;48.558;18.150;2023-05-29T03:24:20;99561.31;;;14.23;72.81
54592;BME280;40488;48.558;18.150;2023-05-29T03:26:51;99562.25;;;14.19;72.96
54592;BME280;40488;48.558;18.150;2023-05-29T03:29:20;99561.47;;;14.16;72.99
54592;BME280;40488;48.558;18.150;2023-05-29T03:31:50;99556.31;;;14.17;73.06
54592;BME280;40488;48.558;18.150;2023-05-29T03:34:25;99563.13;;;14.18;72.82
54592;BME280;40488;48.558;18.150;2023-05-29T03:36:59;99560.53;;;14.20;72.78
54592;BME280;40488;48.558;18.150;2023-05-29T03:39:30;99559.72;;;14.16;73.29
54592;BME280;40488;48.558;18.150;2023-05-29T03:41:59;99559.00;;;14.09;73.91
54592;BME280;40488;48.558;18.150;2023-05-29T03:44:31;99566.63;;;14.14;73.70
54592;BME280;40488;48.558;18.150;2023-05-29T03:46:59;99567.50;;;14.13;73.75
54592;BME280;40488;48.558;18.150;2023-05-29T03:49:31;99569.09;;;14.19;74.08
54592;BME280;40488;48.558;18.150;2023-05-29T03:52:03;99575.00;;;14.25;73.90
54592;BME280;40488;48.558;18.150;2023-05-29T03:54:32;99564.66;;;14.28;73.72
54592;BME280;40488;48.558;18.150;2023-05-29T03:57:03;99574.88;;;14.34;73.68
54592;BME280;40488;48.558;18.150;2023-05-29T03:59:34;99578.25;;;14.36;73.28
54592;BME280;40488;48.558;18.150;2023-05-29T04:02:04;99577.44;;;14.34;73.65
54592;BME280;40488;48.558;18.150;2023-05-29T04:04:35;99572.31;;;14.33;73.47
54592;BME280;40488;48.558;18.150;2023-05-29T04:07:06;99572.22;;;14.39;73.39
54592;BME280;40488;48.558;18.150;2023-05-29T04:09:35;99567.97;;;14.36;73.39
54592;BME280;40488;48.558;18.150;2023-05-29T04:12:05;99563.69;;;14.37;73.43
54592;BME280;40488;48.558;18.150;2023-05-29T04:14:34;99567.81;;;14.45;73.35
54592;BME280;40488;48.558;18.150;2023-05-29T04:17:03;99579.69;;;14.51;73.47
54592;BME280;40488;48.558;18.150;2023-05-29T04:19:33;99575.34;;;14.54;73.06
54592;BME280;40488;48.558;18.150;2023-05-29T04:22:01;99581.16;;;14.64;73.28
54592;BME280;40488;48.558;18.150;2023-05-29T04:24:32;99574.13;;;14.73;73.42
54592;BME280;40488;48.558;18.150;2023-05-29T04:27:03;99578.16;;;14.87;72.96
54592;BME280;40488;48.558;18.150;2023-05-29T04:29:33;99572.06;;;14.91;72.85
54592;BME280;40488;48.558;18.150;2023-05-29T04:32:03;99578.72;;;15.01;73.02
54592;BME280;40488;48.558;18.150;2023-05-29T04:34:32;99580.22;;;15.11;73.08
54592;BME280;40488;48.558;18.150;2023-05-29T04:37:01;99581.75;;;15.21;72.87
54592;BME280;40488;48.558;18.150;2023-05-29T04:39:30;99576.34;;;15.33;72.17
54592;BME280;40488;48.558;18.150;2023-05-29T04:42:02;99587.16;;;15.49;71.38
54592;BME280;40488;48.558;18.150;2023-05-29T04:44:31;99574.94;;;15.58;70.47
54592;BME280;40488;48.558;18.150;2023-05-29T04:47:00;99587.53;;;15.70;69.84
54592;BME280;40488;48.558;18.150;2023-05-29T04:49:31;99592.38;;;15.82;69.70
54592;BME280;40488;48.558;18.150;2023-05-29T04:52:00;99587.88;;;15.92;68.75
54592;BME280;40488;48.558;18.150;2023-05-29T04:54:30;99592.94;;;15.95;68.26
54592;BME280;40488;48.558;18.150;2023-05-29T04:57:01;99590.09;;;16.05;67.77
54592;BME280;40488;48.558;18.150;2023-05-29T04:59:34;99596.78;;;16.14;67.58
54592;BME280;40488;48.558;18.150;2023-05-29T05:02:05;99597.53;;;16.18;67.23
54592;BME280;40488;48.558;18.150;2023-05-29T05:04:34;99594.94;;;16.18;67.01
54592;BME280;40488;48.558;18.150;2023-05-29T05:07:05;99590.59;;;16.20;67.00
54592;BME280;40488;48.558;18.150;2023-05-29T05:09:34;99595.53;;;16.29;66.83
54592;BME280;40488;48.558;18.150;2023-05-29T05:12:05;99590.94;;;16.40;66.37
54592;BME280;40488;48.558;18.150;2023-05-29T05:14:34;99591.63;;;16.46;66.38
54592;BME280;40488;48.558;18.150;2023-05-29T05:17:03;99598.03;;;16.65;66.26
54592;BME280;40488;48.558;18.150;2023-05-29T05:19:33;99596.63;;;16.86;65.57
54592;BME280;40488;48.558;18.150;2023-05-29T05:22:02;99592.78;;;16.99;65.85
54592;BME280;40488;48.558;18.150;2023-05-29T05:24:31;99600.97;;;17.15;66.02
54592;BME280;40488;48.558;18.150;2023-05-29T05:27:05;99605.63;;;17.31;65.58
54592;BME280;40488;48.558;18.150;2023-05-29T05:29:35;99603.56;;;17.42;65.29
54592;BME280;40488;48.558;18.150;2023-05-29T05:32:04;99604.84;;;17.59;64.97
54592;BME280;40488;48.558;18.150;2023-05-29T05:34:34;99604.38;;;17.74;64.83
54592;BME280;40488;48.558;18.150;2023-05-29T05:37:03;99604.78;;;17.88;63.75
54592;BME280;40488;48.558;18.150;2023-05-29T05:39:32;99607.19;;;17.94;62.91
54592;BME280;40488;48.558;18.150;2023-05-29T05:42:01;99608.06;;;17.93;62.61
54592;BME280;40488;48.558;18.150;2023-05-29T05:44:52;99613.53;;;18.10;61.98
54592;BME280;40488;48.558;18.150;2023-05-29T05:47:22;99613.22;;;18.19;61.38
54592;BME280;40488;48.558;18.150;2023-05-29T05:49:51;99605.22;;;18.27;61.09
54592;BME280;40488;48.558;18.150;2023-05-29T05:52:23;99610.22;;;18.33;60.66
54592;BME280;40488;48.558;18.150;2023-05-29T05:54:52;99615.72;;;18.48;61.01
54592;BME280;40488;48.558;18.150;2023-05-29T05:57:22;99618.69;;;18.62;60.62
54592;BME280;40488;48.558;18.150;2023-05-29T05:59:54;99616.53;;;18.75;60.12
54592;BME280;40488;48.558;18.150;2023-05-29T06:02:24;99620.84;;;18.74;59.73
54592;BME280;40488;48.558;18.150;2023-05-29T06:04:53;99617.28;;;18.79;59.52
54592;BME280;40488;48.558;18.150;2023-05-29T06:07:22;99616.88;;;18.89;59.28
54592;BME280;40488;48.558;18.150;2023-05-29T06:09:51;99616.34;;;19.04;59.20
54592;BME280;40488;48.558;18.150;2023-05-29T06:12:20;99613.34;;;19.15;58.99
54592;BME280;40488;48.558;18.150;2023-05-29T06:15:01;99615.06;;;19.16;58.66
54592;BME280;40488;48.558;18.150;2023-05-29T06:17:30;99608.91;;;19.18;58.39
54592;BME280;40488;48.558;18.150;2023-05-29T06:19:59;99611.84;;;19.32;58.24
54592;BME280;40488;48.558;18.150;2023-05-29T06:22:29;99614.28;;;19.37;57.91
54592;BME280;40488;48.558;18.150;2023-05-29T06:24:57;99606.84;;;19.51;57.27
54592;BME280;40488;48.558;18.150;2023-05-29T06:27:29;99617.47;;;19.67;57.03
54592;BME280;40488;48.558;18.150;2023-05-29T06:29:58;99618.19;;;19.70;56.42
54592;BME280;40488;48.558;18.150;2023-05-29T06:32:30;99622.09;;;19.80;55.90
54592;BME280;40488;48.558;18.150;2023-05-29T06:35:00;99624.88;;;19.97;55.59
54592;BME280;40488;48.558;18.150;2023-05-29T06:37:29;99632.16;;;20.10;55.47
54592;BME280;40488;48.558;18.150;2023-05-29T06:39:58;99628.31;;;20.20;54.69
54592;BME280;40488;48.558;18.150;2023-05-29T06:42:27;99628.22;;;20.23;54.17
54592;BME280;40488;48.558;18.150;2023-05-29T06:44:58;99630.13;;;20.18;54.08
54592;BME280;40488;48.558;18.150;2023-05-29T06:47:30;99635.06;;;20.24;53.85
54592;BME280;40488;48.558;18.150;2023-05-29T06:50:00;99628.31;;;20.20;53.24
54592;BME280;40488;48.558;18.150;2023-05-29T06:52:29;99628.41;;;20.17;52.72
54592;BME280;40488;48.558;18.150;2023-05-29T06:55:24;99629.66;;;20.30;52.29
54592;BME280;40488;48.558;18.150;2023-05-29T06:57:56;99633.94;;;20.51;52.32
54592;BME280;40488;48.558;18.150;2023-05-29T07:00:26;99631.59;;;20.65;52.30
54592;BME280;40488;48.558;18.150;2023-05-29T07:03:08;99639.13;;;20.91;52.01
54592;BME280;40488;48.558;18.150;2023-05-29T07:05:37;99636.06;;;21.02;51.86
54592;BME280;40488;48.558;18.150;2023-05-29T07:08:07;99624.31;;;21.13;52.10
54592;BME280;40488;48.558;18.150;2023-05-29T07:10:35;99632.34;;;21.27;51.79
54592;BME280;40488;48.558;18.150;2023-05-29T07:13:04;99627.63;;;21.35;51.48
54592;BME280;40488;48.558;18.150;2023-05-29T07:15:33;99623.84;;;21.43;51.41
54592;BME280;40488;48.558;18.150;2023-05-29T07:18:02;99629.38;;;21.54;51.03
54592;BME280;40488;48.558;18.150;2023-05-29T07:20:33;99618.28;;;21.69;51.02
54592;BME280;40488;48.558;18.150;2023-05-29T07:23:02;99626.28;;;21.83;50.95
54592;BME280;40488;48.558;18.150;2023-05-29T07:25:32;99633.22;;;22.01;51.54
54592;BME280;40488;48.558;18.150;2023-05-29T07:28:01;99623.16;;;22.12;51.21
54592;BME280;40488;48.558;18.150;2023-05-29T07:30:47;99633.78;;;22.25;50.58
54592;BME280;40488;48.558;18.150;2023-05-29T07:33:16;99630.94;;;22.29;49.86
54592;BME280;40488;48.558;18.150;2023-05-29T07:35:47;99640.06;;;22.38;49.72
54592;BME280;40488;48.558;18.150;2023-05-29T07:38:16;99636.16;;;22.46;49.94
54592;BME280;40488;48.558;18.150;2023-05-29T07:40:47;99640.84;;;22.57;49.86
54592;BME280;40488;48.558;18.150;2023-05-29T07:43:28;99644.72;;;22.48;49.90
54592;BME280;40488;48.558;18.150;2023-05-29T07:46:01;99640.84;;;22.57;50.03
54592;BME280;40488;48.558;18.150;2023-05-29T07:48:30;99638.03;;;22.61;49.71
54592;BME280;40488;48.558;18.150;2023-05-29T07:51:01;99640.78;;;22.76;50.01
54592;BME280;40488;48.558;18.150;2023-05-29T07:53:35;99639.50;;;22.84;49.89
54592;BME280;40488;48.558;18.150;2023-05-29T07:56:04;99641.22;;;23.01;49.87
54592;BME280;40488;48.558;18.150;2023-05-29T07:58:33;99642.41;;;23.11;50.43
54592;BME280;40488;48.558;18.150;2023-05-29T08:01:02;99640.72;;;23.10;49.35
54592;BME280;40488;48.558;18.150;2023-05-29T08:03:33;99640.72;;;23.10;48.58
54592;BME280;40488;48.558;18.150;2023-05-29T08:06:06;99641.94;;;23.20;48.00
54592;BME280;40488;48.558;18.150;2023-05-29T08:08:36;99646.28;;;23.19;47.92
54592;BME280;40488;48.558;18.150;2023-05-29T08:11:05;99646.03;;;23.41;47.91
54592;BME280;40488;48.558;18.150;2023-05-29T08:13:34;99633.69;;;23.60;47.51
54592;BME280;40488;48.558;18.150;2023-05-29T08:16:03;99629.22;;;23.78;47.34
54592;BME280;40488;48.558;18.150;2023-05-29T08:18:32;99622.81;;;23.83;47.02
54592;BME280;40488;48.558;18.150;2023-05-29T08:21:02;99637.63;;;23.98;46.87
54592;BME280;40488;48.558;18.150;2023-05-29T08:23:33;99633.31;;;23.97;45.84
54592;BME280;40488;48.558;18.150;2023-05-29T08:26:02;99631.81;;;23.93;46.39
54592;BME280;40488;48.558;18.150;2023-05-29T08:28:31;99638.28;;;24.02;46.48
54592;BME280;40488;48.558;18.150;2023-05-29T08:31:00;99629.13;;;24.11;46.89
54592;BME280;40488;48.558;18.150;2023-05-29T08:33:28;99627.00;;;24.17;48.16
54592;BME280;40488;48.558;18.150;2023-05-29T08:35:58;99629.03;;;24.28;49.10
54592;BME280;40488;48.558;18.150;2023-05-29T08:38:27;99628.06;;;24.29;47.61
54592;BME280;40488;48.558;18.150;2023-05-29T08:40:59;99625.78;;;24.38;46.70
54592;BME280;40488;48.558;18.150;2023-05-29T08:43:30;99631.28;;;24.48;45.84
54592;BME280;40488;48.558;18.150;2023-05-29T08:46:00;99617.38;;;24.33;45.81
54592;BME280;40488;48.558;18.150;2023-05-29T08:48:30;99626.19;;;24.01;46.02
54592;BME280;40488;48.558;18.150;2023-05-29T08:50:59;99622.97;;;23.96;46.50
54592;BME280;40488;48.558;18.150;2023-05-29T08:53:31;99624.50;;;24.16;47.28
54592;BME280;40488;48.558;18.150;2023-05-29T08:56:01;99622.47;;;24.21;47.76
54592;BME280;40488;48.558;18.150;2023-05-29T08:58:31;99627.00;;;24.33;47.87
54592;BME280;40488;48.558;18.150;2023-05-29T09:01:01;99628.25;;;24.55;48.35
54592;BME280;40488;48.558;18.150;2023-05-29T09:03:30;99629.50;;;24.64;47.49
54592;BME280;40488;48.558;18.150;2023-05-29T09:06:00;99623.63;;;24.75;47.61
54592;BME280;40488;48.558;18.150;2023-05-29T09:08:31;99631.19;;;24.79;47.72
54592;BME280;40488;48.558;18.150;2023-05-29T09:11:01;99631.19;;;24.79;46.88
54592;BME280;40488;48.558;18.150;2023-05-29T09:13:30;99625.63;;;24.99;47.86
54592;BME280;40488;48.558;18.150;2023-05-29T09:16:00;99627.50;;;25.11;48.57
54592;BME280;40488;48.558;18.150;2023-05-29T09:18:31;99617.81;;;24.99;46.80
54592;BME280;40488;48.558;18.150;2023-05-29T09:21:06;99621.53;;;24.95;46.62
54592;BME280;40488;48.558;18.150;2023-05-29T09:23:37;99619.84;;;24.94;46.11
54592;BME280;40488;48.558;18.150;2023-05-29T09:26:07;99620.78;;;25.07;46.38
54592;BME280;40488;48.558;18.150;2023-05-29T09:28:36;99620.22;;;25.16;47.16
54592;BME280;40488;48.558;18.150;2023-05-29T09:31:14;99623.22;;;25.53;48.20
54592;BME280;40488;48.558;18.150;2023-05-29T09:33:47;99613.00;;;25.34;47.34
54592;BME280;40488;48.558;18.150;2023-05-29T09:36:20;99616.66;;;25.17;46.69
54592;BME280;40488;48.558;18.150;2023-05-29T09:38:50;99623.41;;;25.21;47.05
54592;BME280;40488;48.558;18.150;2023-05-29T09:41:30;99608.63;;;25.35;47.58
54592;BME280;40488;48.558;18.150;2023-05-29T09:44:00;99622.84;;;25.45;47.31
54592;BME280;40488;48.558;18.150;2023-05-29T09:46:34;99614.41;;;25.54;47.00
54592;BME280;40488;48.558;18.150;2023-05-29T09:49:10;99612.34;;;25.59;47.46
54592;BME280;40488;48.558;18.150;2023-05-29T09:51:40;99626.34;;;25.44;46.38
54592;BME280;40488;48.558;18.150;2023-05-29T09:54:15;99625.44;;;25.30;46.35
54592;BME280;40488;48.558;18.150;2023-05-29T09:56:46;99620.38;;;25.42;46.35
54592;BME280;40488;48.558;18.150;2023-05-29T09:59:15;99616.69;;;25.46;45.42
54592;BME280;40488;48.558;18.150;2023-05-29T10:01:48;99619.34;;;25.58;45.95
54592;BME280;40488;48.558;18.150;2023-05-29T10:04:21;99621.81;;;25.88;46.21
54592;BME280;40488;48.558;18.150;2023-05-29T10:06:52;99609.28;;;25.93;44.90
54592;BME280;40488;48.558;18.150;2023-05-29T10:09:24;99620.34;;;25.84;44.59
54592;BME280;40488;48.558;18.150;2023-05-29T10:11:58;99612.41;;;25.71;44.23
54592;BME280;40488;48.558;18.150;2023-05-29T10:14:31;99614.34;;;25.82;43.91
54592;BME280;40488;48.558;18.150;2023-05-29T10:17:02;99617.34;;;26.03;44.56
54592;BME280;40488;48.558;18.150;2023-05-29T10:19:36;99616.94;;;25.96;44.36
54592;BME280;40488;48.558;18.150;2023-05-29T10:22:06;99611.44;;;25.86;44.37
54592;BME280;40488;48.558;18.150;2023-05-29T10:24:37;99612.72;;;25.93;44.67
54592;BME280;40488;48.558;18.150;2023-05-29T10:27:07;99612.25;;;25.87;45.07
54592;BME280;40488;48.558;18.150;2023-05-29T10:29:39;99611.25;;;26.16;46.34
54592;BME280;40488;48.558;18.150;2023-05-29T10:32:32;99594.44;;;26.33;46.16
54592;BME280;40488;48.558;18.150;2023-05-29T10:35:10;99609.72;;;26.51;44.77
54592;BME280;40488;48.558;18.150;2023-05-29T10:37:44;99610.81;;;26.61;44.84
54592;BME280;40488;48.558;18.150;2023-05-29T10:40:15;99611.00;;;26.46;43.79
54592;BME280;40488;48.558;18.150;2023-05-29T10:42:46;99608.44;;;26.19;42.78
54592;BME280;40488;48.558;18.150;2023-05-29T10:51:05;99571.38;;;26.25;42.46
54592;BME280;40488;48.558;18.150;2023-05-29T10:53:35;99604.19;;;26.43;42.63
54592;BME280;40488;48.558;18.150;2023-05-29T10:56:09;99599.06;;;26.54;42.67
54592;BME280;40488;48.558;18.150;2023-05-29T10:58:51;99579.28;;;26.76;42.94
54592;BME280;40488;48.558;18.150;2023-05-29T11:01:22;99585.38;;;26.89;42.46
54592;BME280;40488;48.558;18.150;2023-05-29T11:03:51;99587.91;;;26.78;42.34
54592;BME280;40488;48.558;18.150;2023-05-29T11:06:21;99585.78;;;26.57;42.96
54592;BME280;40488;48.558;18.150;2023-05-29T11:08:55;99582.56;;;26.92;44.11
54592;BME280;40488;48.558;18.150;2023-05-29T11:11:34;99585.78;;;26.83;42.86
54592;BME280;40488;48.558;18.150;2023-05-29T11:14:07;99580.88;;;26.91;42.42
54592;BME280;40488;48.558;18.150;2023-05-29T11:16:36;99585.91;;;26.94;41.98
54592;BME280;40488;48.558;18.150;2023-05-29T11:19:06;99577.06;;;27.20;42.86
54592;BME280;40488;48.558;18.150;2023-05-29T11:21:52;99573.91;;;27.40;43.11
54592;BME280;40488;48.558;18.150;2023-05-29T11:24:23;99578.91;;;27.43;42.67
54592;BME280;40488;48.558;18.150;2023-05-29T11:26:54;99572.22;;;27.39;42.41
54592;BME280;40488;48.558;18.150;2023-05-29T11:29:28;99573.66;;;27.43;42.65
54592;BME280;40488;48.558;18.150;2023-05-29T11:31:58;99572.56;;;27.58;43.20
54592;BME280;40488;48.558;18.150;2023-05-29T11:34:31;99569.00;;;27.59;42.76
54592;BME280;40488;48.558;18.150;2023-05-29T11:37:02;99577.47;;;27.39;41.43
54592;BME280;40488;48.558;18.150;2023-05-29T11:39:35;99575.56;;;27.28;41.32
54592;BME280;40488;48.558;18.150;2023-05-29T11:42:05;99551.38;;;27.12;41.18
54592;BME280;40488;48.558;18.150;2023-05-29T11:44:36;99582.44;;;27.06;40.47
54592;BME280;40488;48.558;18.150;2023-05-29T11:47:06;99578.13;;;26.92;41.01
54592;BME280;40488;48.558;18.150;2023-05-29T11:49:36;99574.19;;;26.87;41.78
54592;BME280;40488;48.558;18.150;2023-05-29T11:52:06;99580.22;;;27.00;42.36
54592;BME280;40488;48.558;18.150;2023-05-29T11:54:38;99556.56;;;27.01;42.71
54592;BME280;40488;48.558;18.150;2023-05-29T11:57:09;99560.50;;;27.07;41.79
54592;BME280;40488;48.558;18.150;2023-05-29T11:59:39;99571.63;;;26.98;41.50
54592;BME280;40488;48.558;18.150;2023-05-29T12:02:08;99570.41;;;26.91;40.96
54592;BME280;40488;48.558;18.150;2023-05-29T12:04:39;99569.75;;;26.62;40.87
54592;BME280;40488;48.558;18.150;2023-05-29T12:07:17;99558.84;;;26.55;40.20
54592;BME280;40488;48.558;18.150;2023-05-29T12:09:46;99554.56;;;26.67;40.42
54592;BME280;40488;48.558;18.150;2023-05-29T12:12:20;99545.66;;;26.95;40.67
54592;BME280;40488;48.558;18.150;2023-05-29T12:14:51;99541.81;;;27.24;41.16
54592;BME280;40488;48.558;18.150;2023-05-29T12:17:21;99547.69;;;27.40;40.90
54592;BME280;40488;48.558;18.150;2023-05-29T12:19:50;99535.00;;;27.58;40.73
54592;BME280;40488;48.558;18.150;2023-05-29T12:22:32;99538.19;;;27.50;40.11
54592;BME280;40488;48.558;18.150;2023-05-29T12:25:05;99537.91;;;27.66;41.71
54592;BME280;40488;48.558;18.150;2023-05-29T12:27:38;99537.19;;;27.87;42.16
54592;BME280;40488;48.558;18.150;2023-05-29T12:30:13;99512.06;;;27.72;41.62
54592;BME280;40488;48.558;18.150;2023-05-29T12:32:59;99526.91;;;28.08;42.61
54592;BME280;40488;48.558;18.150;2023-05-29T12:35:29;99521.91;;;28.16;41.56
54592;BME280;40488;48.558;18.150;2023-05-29T12:38:01;99521.13;;;28.38;42.53
54592;BME280;40488;48.558;18.150;2023-05-29T12:40:31;99520.16;;;28.28;40.85
54592;BME280;40488;48.558;18.150;2023-05-29T12:43:02;99518.00;;;28.33;40.37
54592;BME280;40488;48.558;18.150;2023-05-29T12:45:34;99518.50;;;28.38;40.78
54592;BME280;40488;48.558;18.150;2023-05-29T12:48:05;99518.28;;;28.41;40.00
54592;BME280;40488;48.558;18.150;2023-05-29T12:50:35;99515.81;;;28.16;39.95
54592;BME280;40488;48.558;18.150;2023-05-29T12:53:06;99513.91;;;28.18;40.13
54592;BME280;40488;48.558;18.150;2023-05-29T12:55:36;99522.38;;;28.10;39.89
54592;BME280;40488;48.558;18.150;2023-05-29T12:58:08;99521.06;;;28.16;39.98
54592;BME280;40488;48.558;18.150;2023-05-29T13:00:39;99516.81;;;28.26;39.92
54592;BME280;40488;48.558;18.150;2023-05-29T13:03:09;99525.56;;;28.03;39.76
54592;BME280;40488;48.558;18.150;2023-05-29T13:05:38;99516.63;;;27.81;41.38
54592;BME280;40488;48.558;18.150;2023-05-29T13:08:08;99522.72;;;27.82;40.53
54592;BME280;40488;48.558;18.150;2023-05-29T13:10:37;99521.38;;;27.76;39.82
54592;BME280;40488;48.558;18.150;2023-05-29T13:13:05;99517.50;;;27.58;40.27
54592;BME280;40488;48.558;18.150;2023-05-29T13:15:34;99510.53;;;27.46;40.35
54592;BME280;40488;48.558;18.150;2023-05-29T13:18:05;99513.66;;;27.51;40.19